Chittagong, Bangladesh
Current Conditions -  °F | °C
As of 3:50 PM on Sunday 23 Nov 2014 (Local Time) from VGEG Reporting Station
Haze Haze  
Wind Chill: 82°   Ceiling: Unl
Heat Index: 82°   Visibility: 2mi
Dew Point: 55°   Wind: 8mph
Humidity: 39%   Direction: 300°WNW
Pressure: 29.83"   Gusts: NA
Location:  22.43°N, 91.6°E
Report Text: VGEG 230950Z 30007KT 3200 HZ NSC 28/13 Q1010 NOSIG
Loading
Personal Weather Stations






























Interactive Weather Map New forecast layout! Learn more

10-Day Weather Forecast

Advertisements
Track Severe Weather on mobile